sensor_id;sensor_type;location;lat;lon;timestamp;pressure;altitude;pressure_sealevel;temperature;humidity
76404;BME280;65232;48.358;2.122;2023-04-15T00:00:07;99806.16;;;9.61;89.79
76404;BME280;65232;48.358;2.122;2023-04-15T00:00:38;99804.47;;;9.60;89.95
76404;BME280;65232;48.358;2.122;2023-04-15T00:01:03;99802.34;;;9.64;89.86
76404;BME280;65232;48.358;2.122;2023-04-15T00:01:30;99802.88;;;9.67;89.50
76404;BME280;65232;48.358;2.122;2023-04-15T00:01:58;99810.38;;;9.64;89.66
76404;BME280;65232;48.358;2.122;2023-04-15T00:02:24;99802.72;;;9.78;89.38
76404;BME280;65232;48.358;2.122;2023-04-15T00:02:49;99804.13;;;9.73;89.21
76404;BME280;65232;48.358;2.122;2023-04-15T00:03:15;99810.66;;;9.61;89.52
76404;BME280;65232;48.358;2.122;2023-04-15T00:03:40;99819.88;;;9.66;89.67
76404;BME280;65232;48.358;2.122;2023-04-15T00:04:06;99802.50;;;9.62;89.71
76404;BME280;65232;48.358;2.122;2023-04-15T00:04:31;99798.84;;;9.63;89.77
76404;BME280;65232;48.358;2.122;2023-04-15T00:04:57;99804.00;;;9.65;89.82
76404;BME280;65232;48.358;2.122;2023-04-15T00:05:23;99812.19;;;9.63;89.59
76404;BME280;65232;48.358;2.122;2023-04-15T00:05:48;99812.47;;;9.60;89.71
76404;BME280;65232;48.358;2.122;2023-04-15T00:06:14;99804.19;;;9.63;89.90
76404;BME280;65232;48.358;2.122;2023-04-15T00:06:39;99806.84;;;9.63;90.10
76404;BME280;65232;48.358;2.122;2023-04-15T00:07:05;99804.59;;;9.59;89.90
76404;BME280;65232;48.358;2.122;2023-04-15T00:07:30;99805.59;;;9.58;90.24
76404;BME280;65232;48.358;2.122;2023-04-15T00:07:56;99809.66;;;9.52;90.45
76404;BME280;65232;48.358;2.122;2023-04-15T00:08:23;99805.50;;;9.49;90.65
76404;BME280;65232;48.358;2.122;2023-04-15T00:08:48;99805.88;;;9.54;90.54
76404;BME280;65232;48.358;2.122;2023-04-15T00:09:14;99804.88;;;9.55;90.30
76404;BME280;65232;48.358;2.122;2023-04-15T00:09:41;99811.91;;;9.57;90.34
76404;BME280;65232;48.358;2.122;2023-04-15T00:10:07;99810.38;;;9.54;90.33
76404;BME280;65232;48.358;2.122;2023-04-15T00:10:33;99806.16;;;9.51;90.26
76404;BME280;65232;48.358;2.122;2023-04-15T00:10:58;99811.34;;;9.53;90.43
76404;BME280;65232;48.358;2.122;2023-04-15T00:11:30;99809.53;;;9.53;90.57
76404;BME280;65232;48.358;2.122;2023-04-15T00:11:55;99805.03;;;9.54;90.40
76404;BME280;65232;48.358;2.122;2023-04-15T00:12:21;99807.13;;;9.50;90.36
76404;BME280;65232;48.358;2.122;2023-04-15T00:12:47;99808.81;;;9.51;90.40
76404;BME280;65232;48.358;2.122;2023-04-15T00:13:12;99809.66;;;9.52;90.29
76404;BME280;65232;48.358;2.122;2023-04-15T00:13:38;99801.66;;;9.52;90.45
76404;BME280;65232;48.358;2.122;2023-04-15T00:14:03;99809.25;;;9.57;90.52
76404;BME280;65232;48.358;2.122;2023-04-15T00:14:30;99796.59;;;9.59;90.41
76404;BME280;65232;48.358;2.122;2023-04-15T00:14:56;99805.44;;;9.59;90.12
76404;BME280;65232;48.358;2.122;2023-04-15T00:15:23;99809.09;;;9.58;90.02
76404;BME280;65232;48.358;2.122;2023-04-15T00:15:48;99804.47;;;9.60;90.05
76404;BME280;65232;48.358;2.122;2023-04-15T00:16:13;99794.75;;;9.59;90.25
76404;BME280;65232;48.358;2.122;2023-04-15T00:16:39;99799.81;;;9.62;90.04
76404;BME280;65232;48.358;2.122;2023-04-15T00:17:04;99805.69;;;9.66;89.99
76404;BME280;65232;48.358;2.122;2023-04-15T00:17:30;99792.19;;;9.67;89.91
76404;BME280;65232;48.358;2.122;2023-04-15T00:17:56;99796.53;;;9.68;89.89
76404;BME280;65232;48.358;2.122;2023-04-15T00:18:23;99791.34;;;9.67;89.75
76404;BME280;65232;48.358;2.122;2023-04-15T00:18:48;99795.84;;;9.66;89.75
76404;BME280;65232;48.358;2.122;2023-04-15T00:19:14;99796.41;;;9.70;89.66
76404;BME280;65232;48.358;2.122;2023-04-15T00:19:39;99796.41;;;9.70;89.82
76404;BME280;65232;48.358;2.122;2023-04-15T00:20:05;99800.06;;;9.69;89.83
76404;BME280;65232;48.358;2.122;2023-04-15T00:20:31;99797.38;;;9.69;89.79
76404;BME280;65232;48.358;2.122;2023-04-15T00:20:56;99796.00;;;9.65;89.78
76404;BME280;65232;48.358;2.122;2023-04-15T00:21:21;99798.84;;;9.63;90.00
76404;BME280;65232;48.358;2.122;2023-04-15T00:21:47;99804.00;;;9.65;89.97
76404;BME280;65232;48.358;2.122;2023-04-15T00:22:13;99793.19;;;9.66;89.96
76404;BME280;65232;48.358;2.122;2023-04-15T00:22:38;99793.31;;;9.65;89.95
76404;BME280;65232;48.358;2.122;2023-04-15T00:23:03;99801.34;;;9.65;90.17
76404;BME280;65232;48.358;2.122;2023-04-15T00:23:30;99803.19;;;9.64;90.33
76404;BME280;65232;48.358;2.122;2023-04-15T00:23:56;99790.50;;;9.66;90.04
76404;BME280;65232;48.358;2.122;2023-04-15T00:24:22;99791.34;;;9.67;89.96
76404;BME280;65232;48.358;2.122;2023-04-15T00:24:47;99790.50;;;9.66;89.75
76404;BME280;65232;48.358;2.122;2023-04-15T00:25:13;99781.81;;;9.64;89.88
76404;BME280;65232;48.358;2.122;2023-04-15T00:25:39;99786.16;;;9.65;90.05
76404;BME280;65232;48.358;2.122;2023-04-15T00:26:04;99799.69;;;9.64;90.14
76404;BME280;65232;48.358;2.122;2023-04-15T00:26:30;99789.13;;;9.62;90.32
76404;BME280;65232;48.358;2.122;2023-04-15T00:26:56;99792.66;;;9.63;90.32
76404;BME280;65232;48.358;2.122;2023-04-15T00:27:22;99798.13;;;9.61;90.12
76404;BME280;65232;48.358;2.122;2023-04-15T00:27:47;99784.78;;;9.61;90.19
76404;BME280;65232;48.358;2.122;2023-04-15T00:28:13;99795.59;;;9.60;90.22
76404;BME280;65232;48.358;2.122;2023-04-15T00:28:39;99790.41;;;9.58;90.44
76404;BME280;65232;48.358;2.122;2023-04-15T00:29:05;99792.50;;;9.64;90.29
76404;BME280;65232;48.358;2.122;2023-04-15T00:29:30;99791.66;;;9.64;90.14
76404;BME280;65232;48.358;2.122;2023-04-15T00:29:56;99788.28;;;9.62;90.22
76404;BME280;65232;48.358;2.122;2023-04-15T00:30:21;99786.75;;;9.59;90.11
76404;BME280;65232;48.358;2.122;2023-04-15T00:30:48;99778.13;;;9.65;90.25
76404;BME280;65232;48.358;2.122;2023-04-15T00:31:13;99789.00;;;9.64;90.03
76404;BME280;65232;48.358;2.122;2023-04-15T00:31:39;99793.31;;;9.65;89.98
76404;BME280;65232;48.358;2.122;2023-04-15T00:32:05;99790.22;;;9.69;89.93
76404;BME280;65232;48.358;2.122;2023-04-15T00:32:31;99786.84;;;9.67;90.10
76404;BME280;65232;48.358;2.122;2023-04-15T00:32:56;99789.38;;;9.69;90.11
76404;BME280;65232;48.358;2.122;2023-04-15T00:33:22;99777.69;;;9.70;90.23
76404;BME280;65232;48.358;2.122;2023-04-15T00:33:48;99778.84;;;9.67;90.41
76404;BME280;65232;48.358;2.122;2023-04-15T00:34:13;99779.81;;;9.66;90.39
76404;BME280;65232;48.358;2.122;2023-04-15T00:34:41;99781.22;;;9.70;90.21
76404;BME280;65232;48.358;2.122;2023-04-15T00:35:07;99783.06;;;9.70;90.29
76404;BME280;65232;48.358;2.122;2023-04-15T00:35:33;99777.56;;;9.71;90.38
76404;BME280;65232;48.358;2.122;2023-04-15T00:35:58;99772.22;;;9.71;90.28
76404;BME280;65232;48.358;2.122;2023-04-15T00:36:24;99779.38;;;9.71;90.17
76404;BME280;65232;48.358;2.122;2023-04-15T00:36:50;99774.88;;;9.71;89.99
76404;BME280;65232;48.358;2.122;2023-04-15T00:37:16;99767.56;;;9.73;89.98
76404;BME280;65232;48.358;2.122;2023-04-15T00:37:42;99773.06;;;9.72;90.01
76404;BME280;65232;48.358;2.122;2023-04-15T00:38:08;99774.75;;;9.73;89.91
76404;BME280;65232;48.358;2.122;2023-04-15T00:38:33;99766.03;;;9.71;89.93
76404;BME280;65232;48.358;2.122;2023-04-15T00:38:58;99778.84;;;9.67;90.21
76404;BME280;65232;48.358;2.122;2023-04-15T00:39:24;99769.28;;;9.65;90.24
76404;BME280;65232;48.358;2.122;2023-04-15T00:39:49;99769.84;;;9.68;90.26
76404;BME280;65232;48.358;2.122;2023-04-15T00:40:18;99766.19;;;9.69;90.31
76404;BME280;65232;48.358;2.122;2023-04-15T00:40:43;99765.47;;;9.67;90.34
76404;BME280;65232;48.358;2.122;2023-04-15T00:41:10;99766.03;;;9.71;90.26
76404;BME280;65232;48.358;2.122;2023-04-15T00:41:35;99763.91;;;9.74;90.03
76404;BME280;65232;48.358;2.122;2023-04-15T00:42:04;99766.59;;;9.74;90.11
76404;BME280;65232;48.358;2.122;2023-04-15T00:42:29;99769.53;;;9.71;89.97
76404;BME280;65232;48.358;2.122;2023-04-15T00:42:55;99760.00;;;9.69;90.28
76404;BME280;65232;48.358;2.122;2023-04-15T00:43:21;99760.41;;;9.74;90.13
76404;BME280;65232;48.358;2.122;2023-04-15T00:43:46;99766.19;;;9.69;90.18
76404;BME280;65232;48.358;2.122;2023-04-15T00:44:12;99767.72;;;9.72;90.18
76404;BME280;65232;48.358;2.122;2023-04-15T00:44:37;99768.00;;;9.69;90.21
76404;BME280;65232;48.358;2.122;2023-04-15T00:45:03;99765.19;;;9.70;90.17
76404;BME280;65232;48.358;2.122;2023-04-15T00:45:29;99764.78;;;9.65;90.23
76404;BME280;65232;48.358;2.122;2023-04-15T00:45:55;99771.94;;;9.65;90.50
76404;BME280;65232;48.358;2.122;2023-04-15T00:46:24;99765.09;;;9.62;90.58
76404;BME280;65232;48.358;2.122;2023-04-15T00:46:52;99770.59;;;9.61;90.64
76404;BME280;65232;48.358;2.122;2023-04-15T00:47:19;99765.25;;;9.61;90.68
76404;BME280;65232;48.358;2.122;2023-04-15T00:47:45;99770.03;;;9.57;90.92
76404;BME280;65232;48.358;2.122;2023-04-15T00:48:11;99765.53;;;9.58;90.67
76404;BME280;65232;48.358;2.122;2023-04-15T00:48:36;99766.66;;;9.55;90.95
76404;BME280;65232;48.358;2.122;2023-04-15T00:49:03;99764.69;;;9.57;90.78
76404;BME280;65232;48.358;2.122;2023-04-15T00:49:29;99769.88;;;9.59;90.85
76404;BME280;65232;48.358;2.122;2023-04-15T00:49:54;99773.13;;;9.62;90.70
76404;BME280;65232;48.358;2.122;2023-04-15T00:50:20;99770.28;;;9.64;90.77
76404;BME280;65232;48.358;2.122;2023-04-15T00:50:45;99774.78;;;9.63;90.66
76404;BME280;65232;48.358;2.122;2023-04-15T00:51:11;99757.94;;;9.63;90.65
76404;BME280;65232;48.358;2.122;2023-04-15T00:51:36;99770.59;;;9.61;90.83
76404;BME280;65232;48.358;2.122;2023-04-15T00:52:02;99765.78;;;9.64;90.81
76404;BME280;65232;48.358;2.122;2023-04-15T00:52:28;99766.78;;;9.63;90.67
76404;BME280;65232;48.358;2.122;2023-04-15T00:52:54;99769.75;;;9.60;91.01
76404;BME280;65232;48.358;2.122;2023-04-15T00:53:19;99765.53;;;9.58;90.94
76404;BME280;65232;48.358;2.122;2023-04-15T00:53:45;99772.00;;;9.55;91.17
76404;BME280;65232;48.358;2.122;2023-04-15T00:54:11;99765.38;;;9.59;90.98
76404;BME280;65232;48.358;2.122;2023-04-15T00:54:36;99769.88;;;9.59;91.02
76404;BME280;65232;48.358;2.122;2023-04-15T00:55:02;99773.13;;;9.62;90.95
76404;BME280;65232;48.358;2.122;2023-04-15T00:55:28;99762.56;;;9.61;90.89
76404;BME280;65232;48.358;2.122;2023-04-15T00:55:54;99762.72;;;9.59;90.74
76404;BME280;65232;48.358;2.122;2023-04-15T00:56:20;99765.94;;;9.63;90.91
76404;BME280;65232;48.358;2.122;2023-04-15T00:56:49;99769.59;;;9.62;90.84
76404;BME280;65232;48.358;2.122;2023-04-15T00:57:15;99762.44;;;9.62;90.96
76404;BME280;65232;48.358;2.122;2023-04-15T00:57:42;99769.69;;;9.70;90.78
76404;BME280;65232;48.358;2.122;2023-04-15T00:58:08;99762.38;;;9.72;90.64
76404;BME280;65232;48.358;2.122;2023-04-15T00:58:34;99770.09;;;9.75;90.50
76404;BME280;65232;48.358;2.122;2023-04-15T00:59:00;99765.59;;;9.75;90.28
76404;BME280;65232;48.358;2.122;2023-04-15T00:59:26;99766.72;;;9.73;90.34
76404;BME280;65232;48.358;2.122;2023-04-15T00:59:54;99766.03;;;9.71;90.46
76404;BME280;65232;48.358;2.122;2023-04-15T01:00:20;99762.66;;;9.69;90.54
76404;BME280;65232;48.358;2.122;2023-04-15T01:00:46;99762.94;;;9.66;90.77
76404;BME280;65232;48.358;2.122;2023-04-15T01:01:13;99763.66;;;9.68;90.75
76404;BME280;65232;48.358;2.122;2023-04-15T01:01:39;99770.25;;;9.73;90.61
76404;BME280;65232;48.358;2.122;2023-04-15T01:02:05;99766.44;;;9.76;90.41
76404;BME280;65232;48.358;2.122;2023-04-15T01:02:31;99764.91;;;9.73;90.50
76404;BME280;65232;48.358;2.122;2023-04-15T01:02:57;99761.81;;;9.78;90.24
76404;BME280;65232;48.358;2.122;2023-04-15T01:03:23;99757.44;;;9.77;90.43
76404;BME280;65232;48.358;2.122;2023-04-15T01:03:48;99762.94;;;9.75;90.42
76404;BME280;65232;48.358;2.122;2023-04-15T01:04:14;99770.25;;;9.73;90.35
76404;BME280;65232;48.358;2.122;2023-04-15T01:04:40;99758.84;;;9.71;90.69
76404;BME280;65232;48.358;2.122;2023-04-15T01:05:06;99766.88;;;9.71;90.73
76404;BME280;65232;48.358;2.122;2023-04-15T01:05:32;99764.22;;;9.71;90.65
76404;BME280;65232;48.358;2.122;2023-04-15T01:05:59;99761.38;;;9.73;90.82
76404;BME280;65232;48.358;2.122;2023-04-15T01:06:25;99764.06;;;9.73;90.80
76404;BME280;65232;48.358;2.122;2023-04-15T01:06:51;99760.41;;;9.74;90.95
76404;BME280;65232;48.358;2.122;2023-04-15T01:07:17;99759.56;;;9.73;90.84
76404;BME280;65232;48.358;2.122;2023-04-15T01:07:42;99759.56;;;9.73;90.82
76404;BME280;65232;48.358;2.122;2023-04-15T01:08:08;99765.03;;;9.72;90.88
76404;BME280;65232;48.358;2.122;2023-04-15T01:08:33;99762.09;;;9.75;90.77
76404;BME280;65232;48.358;2.122;2023-04-15T01:08:59;99760.25;;;9.75;90.73
76404;BME280;65232;48.358;2.122;2023-04-15T01:09:25;99764.28;;;9.79;90.77
76404;BME280;65232;48.358;2.122;2023-04-15T01:09:51;99763.91;;;9.74;90.47
76404;BME280;65232;48.358;2.122;2023-04-15T01:10:17;99761.25;;;9.74;90.53
76404;BME280;65232;48.358;2.122;2023-04-15T01:10:42;99758.44;;;9.76;90.46
76404;BME280;65232;48.358;2.122;2023-04-15T01:11:09;99758.56;;;9.74;90.81
76404;BME280;65232;48.358;2.122;2023-04-15T01:11:35;99757.59;;;9.75;90.75
76404;BME280;65232;48.358;2.122;2023-04-15T01:12:00;99760.41;;;9.74;91.10
76404;BME280;65232;48.358;2.122;2023-04-15T01:12:26;99761.25;;;9.74;91.01
76404;BME280;65232;48.358;2.122;2023-04-15T01:12:52;99754.22;;;9.73;90.99
76404;BME280;65232;48.358;2.122;2023-04-15T01:13:17;99760.13;;;9.77;90.98
76404;BME280;65232;48.358;2.122;2023-04-15T01:13:43;99758.44;;;9.76;91.09
76404;BME280;65232;48.358;2.122;2023-04-15T01:14:09;99762.94;;;9.75;91.01
76404;BME280;65232;48.358;2.122;2023-04-15T01:14:35;99761.25;;;9.74;91.13
76404;BME280;65232;48.358;2.122;2023-04-15T01:15:02;99764.06;;;9.73;91.27
76404;BME280;65232;48.358;2.122;2023-04-15T01:15:27;99760.25;;;9.75;91.17
76404;BME280;65232;48.358;2.122;2023-04-15T01:15:53;99759.28;;;9.76;91.18
76404;BME280;65232;48.358;2.122;2023-04-15T01:16:21;99763.63;;;9.77;91.03
76404;BME280;65232;48.358;2.122;2023-04-15T01:16:46;99758.44;;;9.76;91.27
76404;BME280;65232;48.358;2.122;2023-04-15T01:17:12;99756.75;;;9.75;91.20
76404;BME280;65232;48.358;2.122;2023-04-15T01:17:38;99762.78;;;9.77;91.26
76404;BME280;65232;48.358;2.122;2023-04-15T01:18:05;99758.13;;;9.79;91.05
76404;BME280;65232;48.358;2.122;2023-04-15T01:18:32;99762.31;;;9.81;90.91
76404;BME280;65232;48.358;2.122;2023-04-15T01:18:58;99757.69;;;9.83;91.00
76404;BME280;65232;48.358;2.122;2023-04-15T01:19:23;99762.31;;;9.81;91.00
76404;BME280;65232;48.358;2.122;2023-04-15T01:19:50;99757.09;;;9.89;90.99
76404;BME280;65232;48.358;2.122;2023-04-15T01:20:16;99762.28;;;9.91;91.11
76404;BME280;65232;48.358;2.122;2023-04-15T01:20:41;99757.25;;;9.88;90.90
76404;BME280;65232;48.358;2.122;2023-04-15T01:21:07;99758.50;;;9.94;90.72
76404;BME280;65232;48.358;2.122;2023-04-15T01:21:36;99759.13;;;10.05;90.61
76404;BME280;65232;48.358;2.122;2023-04-15T01:22:03;99754.75;;;10.04;90.46
76404;BME280;65232;48.358;2.122;2023-04-15T01:22:29;99754.22;;;10.01;90.59
76404;BME280;65232;48.358;2.122;2023-04-15T01:22:55;99760.41;;;10.01;90.34
76404;BME280;65232;48.358;2.122;2023-04-15T01:23:21;99754.06;;;10.02;90.35
76404;BME280;65232;48.358;2.122;2023-04-15T01:23:51;99760.56;;;10.00;90.21
76404;BME280;65232;48.358;2.122;2023-04-15T01:24:18;99751.84;;;9.98;90.43
76404;BME280;65232;48.358;2.122;2023-04-15T01:24:50;99756.59;;;10.04;90.46
76404;BME280;65232;48.358;2.122;2023-04-15T01:25:29;99757.03;;;9.99;90.47
76404;BME280;65232;48.358;2.122;2023-04-15T01:25:55;99759.56;;;10.01;90.32
76404;BME280;65232;48.358;2.122;2023-04-15T01:26:22;99756.88;;;10.01;90.29
76404;BME280;65232;48.358;2.122;2023-04-15T01:26:48;99756.88;;;10.01;90.56
76404;BME280;65232;48.358;2.122;2023-04-15T01:27:14;99759.28;;;10.04;90.64
76404;BME280;65232;48.358;2.122;2023-04-15T01:27:40;99752.09;;;10.04;90.50
76404;BME280;65232;48.358;2.122;2023-04-15T01:28:09;99760.25;;;10.03;90.64
76404;BME280;65232;48.358;2.122;2023-04-15T01:28:36;99762.22;;;10.01;90.65
76404;BME280;65232;48.358;2.122;2023-04-15T01:29:03;99761.25;;;10.02;90.62
76404;BME280;65232;48.358;2.122;2023-04-15T01:29:30;99763.47;;;10.06;90.30
76404;BME280;65232;48.358;2.122;2023-04-15T01:29:56;99764.69;;;10.12;90.52
76404;BME280;65232;48.358;2.122;2023-04-15T01:30:22;99763.84;;;10.11;90.57
76404;BME280;65232;48.358;2.122;2023-04-15T01:30:48;99766.16;;;10.06;90.67
76404;BME280;65232;48.358;2.122;2023-04-15T01:31:14;99762.22;;;10.01;91.04
76404;BME280;65232;48.358;2.122;2023-04-15T01:31:39;99764.19;;;10.08;90.55
76404;BME280;65232;48.358;2.122;2023-04-15T01:32:05;99767.66;;;10.18;90.52
76404;BME280;65232;48.358;2.122;2023-04-15T01:32:30;99761.78;;;10.05;90.75
76404;BME280;65232;48.358;2.122;2023-04-15T01:32:56;99766.31;;;10.05;90.79
76404;BME280;65232;48.358;2.122;2023-04-15T01:33:21;99763.91;;;10.02;91.02
76404;BME280;65232;48.358;2.122;2023-04-15T01:33:47;99759.13;;;10.05;90.89
76404;BME280;65232;48.358;2.122;2023-04-15T01:34:13;99764.63;;;10.04;90.97
76404;BME280;65232;48.358;2.122;2023-04-15T01:34:38;99773.63;;;10.03;91.01
76404;BME280;65232;48.358;2.122;2023-04-15T01:35:04;99764.63;;;10.04;91.02
76404;BME280;65232;48.358;2.122;2023-04-15T01:35:30;99767.28;;;10.04;91.12
76404;BME280;65232;48.358;2.122;2023-04-15T01:35:56;99756.31;;;10.07;91.10
76404;BME280;65232;48.358;2.122;2023-04-15T01:36:23;99769.81;;;10.05;90.78
76404;BME280;65232;48.358;2.122;2023-04-15T01:36:52;99762.88;;;10.12;90.92
76404;BME280;65232;48.358;2.122;2023-04-15T01:37:20;99765.38;;;10.14;90.76
76404;BME280;65232;48.358;2.122;2023-04-15T01:37:45;99764.69;;;10.21;90.58
76404;BME280;65232;48.358;2.122;2023-04-15T01:38:12;99772.56;;;10.23;90.41
76404;BME280;65232;48.358;2.122;2023-04-15T01:38:37;99755.69;;;10.22;90.43
76404;BME280;65232;48.358;2.122;2023-04-15T01:39:03;99763.00;;;10.20;90.39
76404;BME280;65232;48.358;2.122;2023-04-15T01:39:29;99764.53;;;10.23;90.20
76404;BME280;65232;48.358;2.122;2023-04-15T01:39:55;99764.69;;;10.21;90.27
76404;BME280;65232;48.358;2.122;2023-04-15T01:40:22;99766.78;;;10.18;90.50
76404;BME280;65232;48.358;2.122;2023-04-15T01:40:47;99766.94;;;10.16;90.57
76404;BME280;65232;48.358;2.122;2023-04-15T01:41:13;99766.38;;;10.13;90.81
76404;BME280;65232;48.358;2.122;2023-04-15T01:41:38;99765.53;;;10.12;90.72
76404;BME280;65232;48.358;2.122;2023-04-15T01:42:05;99761.31;;;10.10;90.68
76404;BME280;65232;48.358;2.122;2023-04-15T01:42:31;99762.88;;;10.12;90.78
76404;BME280;65232;48.358;2.122;2023-04-15T01:42:56;99761.31;;;10.10;90.74
76404;BME280;65232;48.358;2.122;2023-04-15T01:43:22;99772.28;;;10.16;90.83
76404;BME280;65232;48.358;2.122;2023-04-15T01:43:47;99766.09;;;10.16;90.68
76404;BME280;65232;48.358;2.122;2023-04-15T01:44:13;99766.38;;;10.13;91.00
76404;BME280;65232;48.358;2.122;2023-04-15T01:44:38;99765.38;;;10.14;90.97
76404;BME280;65232;48.358;2.122;2023-04-15T01:45:04;99769.19;;;10.11;90.91
76404;BME280;65232;48.358;2.122;2023-04-15T01:45:30;99766.38;;;10.13;91.01
76404;BME280;65232;48.358;2.122;2023-04-15T01:45:55;99768.81;;;10.06;91.13
76404;BME280;65232;48.358;2.122;2023-04-15T01:46:21;99770.31;;;10.18;91.04
76404;BME280;65232;48.358;2.122;2023-04-15T01:46:47;99769.59;;;10.16;90.77
76404;BME280;65232;48.358;2.122;2023-04-15T01:47:12;99773.13;;;10.17;90.90
76404;BME280;65232;48.358;2.122;2023-04-15T01:47:40;99773.41;;;10.14;90.93
76404;BME280;65232;48.358;2.122;2023-04-15T01:48:05;99774.09;;;10.16;91.13
76404;BME280;65232;48.358;2.122;2023-04-15T01:48:31;99770.59;;;10.15;91.24
76404;BME280;65232;48.358;2.122;2023-04-15T01:48:57;99773.41;;;10.23;90.99
76404;BME280;65232;48.358;2.122;2023-04-15T01:49:24;99778.81;;;10.32;90.40
76404;BME280;65232;48.358;2.122;2023-04-15T01:49:49;99773.91;;;10.27;90.12
76404;BME280;65232;48.358;2.122;2023-04-15T01:50:15;99794.78;;;10.23;89.81
76404;BME280;65232;48.358;2.122;2023-04-15T01:50:40;99778.22;;;10.20;90.07
76404;BME280;65232;48.358;2.122;2023-04-15T01:51:06;99777.59;;;10.26;89.58
76404;BME280;65232;48.358;2.122;2023-04-15T01:51:32;99781.56;;;10.12;89.85
76404;BME280;65232;48.358;2.122;2023-04-15T01:51:58;99775.94;;;10.15;89.75
76404;BME280;65232;48.358;2.122;2023-04-15T01:52:23;99782.88;;;10.08;90.06
76404;BME280;65232;48.358;2.122;2023-04-15T01:52:49;99794.09;;;10.12;90.12
76404;BME280;65232;48.358;2.122;2023-04-15T01:53:16;99785.38;;;10.10;89.56
76404;BME280;65232;48.358;2.122;2023-04-15T01:53:42;99787.00;;;10.03;90.16
76404;BME280;65232;48.358;2.122;2023-04-15T01:54:08;99775.75;;;9.99;89.48
76404;BME280;65232;48.358;2.122;2023-04-15T01:54:33;99790.50;;;10.03;88.81
76404;BME280;65232;48.358;2.122;2023-04-15T01:54:59;99804.31;;;9.99;88.95
76404;BME280;65232;48.358;2.122;2023-04-15T01:55:24;99795.44;;;9.98;89.20
76404;BME280;65232;48.358;2.122;2023-04-15T01:55:50;99792.06;;;9.96;89.08
76404;BME280;65232;48.358;2.122;2023-04-15T01:56:16;99798.03;;;9.90;89.14
76404;BME280;65232;48.358;2.122;2023-04-15T01:56:42;99801.25;;;9.94;88.84
76404;BME280;65232;48.358;2.122;2023-04-15T01:57:08;99800.22;;;9.95;88.75
76404;BME280;65232;48.358;2.122;2023-04-15T01:57:34;99798.56;;;9.94;87.79
76404;BME280;65232;48.358;2.122;2023-04-15T01:57:59;99807.03;;;9.89;87.54
76404;BME280;65232;48.358;2.122;2023-04-15T01:58:25;99797.06;;;9.81;87.95
76404;BME280;65232;48.358;2.122;2023-04-15T01:58:51;99800.56;;;9.82;88.23
76404;BME280;65232;48.358;2.122;2023-04-15T01:59:17;99807.16;;;9.87;87.93
76404;BME280;65232;48.358;2.122;2023-04-15T01:59:42;99806.31;;;9.87;87.95
76404;BME280;65232;48.358;2.122;2023-04-15T02:00:08;99798.22;;;9.79;87.75
76404;BME280;65232;48.358;2.122;2023-04-15T02:00:40;99803.38;;;9.80;88.06
76404;BME280;65232;48.358;2.122;2023-04-15T02:01:06;99803.66;;;9.87;87.54
76404;BME280;65232;48.358;2.122;2023-04-15T02:01:34;99809.19;;;9.76;87.88
76404;BME280;65232;48.358;2.122;2023-04-15T02:01:59;99805.69;;;9.75;87.41
76404;BME280;65232;48.358;2.122;2023-04-15T02:02:26;99801.88;;;9.78;87.46
76404;BME280;65232;48.358;2.122;2023-04-15T02:02:54;99805.25;;;9.70;87.79
76404;BME280;65232;48.358;2.122;2023-04-15T02:03:19;99804.56;;;9.78;87.77
76404;BME280;65232;48.358;2.122;2023-04-15T02:03:45;99804.84;;;9.75;87.02
76404;BME280;65232;48.358;2.122;2023-04-15T02:04:13;99807.66;;;9.73;86.66
76404;BME280;65232;48.358;2.122;2023-04-15T02:04:41;99808.72;;;9.80;86.39
76404;BME280;65232;48.358;2.122;2023-04-15T02:05:07;99814.97;;;9.71;86.46
76404;BME280;65232;48.358;2.122;2023-04-15T02:05:32;99818.81;;;9.59;86.93
76404;BME280;65232;48.358;2.122;2023-04-15T02:05:58;99818.81;;;9.59;86.89
76404;BME280;65232;48.358;2.122;2023-04-15T02:06:23;99826.97;;;9.58;86.93
76404;BME280;65232;48.358;2.122;2023-04-15T02:06:49;99818.09;;;9.57;87.27
76404;BME280;65232;48.358;2.122;2023-04-15T02:07:15;99820.50;;;9.50;87.35
76404;BME280;65232;48.358;2.122;2023-04-15T02:07:44;99822.06;;;9.43;86.95
76404;BME280;65232;48.358;2.122;2023-04-15T02:08:10;99817.72;;;9.42;87.03
76404;BME280;65232;48.358;2.122;2023-04-15T02:08:36;99820.53;;;9.41;87.33
76404;BME280;65232;48.358;2.122;2023-04-15T02:09:05;99818.97;;;9.38;88.05
76404;BME280;65232;48.358;2.122;2023-04-15T02:09:30;99821.13;;;9.35;88.32
76404;BME280;65232;48.358;2.122;2023-04-15T02:09:56;99822.78;;;9.36;88.35
76404;BME280;65232;48.358;2.122;2023-04-15T02:10:21;99826.47;;;9.35;88.54
76404;BME280;65232;48.358;2.122;2023-04-15T02:10:47;99822.66;;;9.28;88.59
76404;BME280;65232;48.358;2.122;2023-04-15T02:11:12;99823.66;;;9.27;88.43
76404;BME280;65232;48.358;2.122;2023-04-15T02:11:38;99823.38;;;9.30;88.14
76404;BME280;65232;48.358;2.122;2023-04-15T02:12:04;99821.50;;;9.40;88.26
76404;BME280;65232;48.358;2.122;2023-04-15T02:12:30;99825.72;;;9.42;87.94
76404;BME280;65232;48.358;2.122;2023-04-15T02:12:55;99829.28;;;9.33;87.30
76404;BME280;65232;48.358;2.122;2023-04-15T02:13:21;99818.28;;;9.36;87.39
76404;BME280;65232;48.358;2.122;2023-04-15T02:13:47;99821.38;;;9.41;86.96
76404;BME280;65232;48.358;2.122;2023-04-15T02:14:13;99823.22;;;9.31;87.18
76404;BME280;65232;48.358;2.122;2023-04-15T02:14:38;99825.16;;;9.39;87.39
76404;BME280;65232;48.358;2.122;2023-04-15T02:15:04;99827.84;;;9.39;87.73
76404;BME280;65232;48.358;2.122;2023-04-15T02:15:30;99821.50;;;9.40;87.86
76404;BME280;65232;48.358;2.122;2023-04-15T02:15:55;99826.72;;;9.41;87.25
76404;BME280;65232;48.358;2.122;2023-04-15T02:16:21;99835.00;;;9.38;87.12
76404;BME280;65232;48.358;2.122;2023-04-15T02:16:46;99832.34;;;9.29;87.30
76404;BME280;65232;48.358;2.122;2023-04-15T02:17:13;99833.31;;;9.37;87.37
76404;BME280;65232;48.358;2.122;2023-04-15T02:17:40;99835.41;;;9.43;87.28
76404;BME280;65232;48.358;2.122;2023-04-15T02:18:09;99828.81;;;9.47;87.44
76404;BME280;65232;48.358;2.122;2023-04-15T02:18:35;99841.47;;;9.45;87.21
76404;BME280;65232;48.358;2.122;2023-04-15T02:19:01;99836.53;;;9.50;86.67
76404;BME280;65232;48.358;2.122;2023-04-15T02:19:28;99847.22;;;9.41;86.81